createdAt,value
2022-10-03T00:01:21.358Z,12.49
2022-10-03T00:03:11.775Z,12.49
2022-10-03T00:04:45.562Z,12.46
2022-10-03T00:06:33.481Z,12.43
2022-10-03T00:08:05.395Z,12.39
2022-10-03T00:09:56.657Z,12.36
2022-10-03T00:11:32.728Z,12.34
2022-10-03T00:13:16.523Z,12.34
2022-10-03T00:14:58.880Z,12.33
2022-10-03T00:16:30.453Z,12.36
2022-10-03T00:18:08.510Z,12.40
2022-10-03T00:19:42.356Z,12.37
2022-10-03T00:21:14.582Z,12.31
2022-10-03T00:23:07.451Z,12.27
2022-10-03T00:24:41.953Z,12.25
2022-10-03T00:26:32.011Z,12.25
2022-10-03T00:28:06.674Z,12.25
2022-10-03T00:29:48.231Z,12.27
2022-10-03T00:31:25.297Z,12.21
2022-10-03T00:33:12.212Z,12.24
2022-10-03T00:34:43.940Z,12.26
2022-10-03T00:36:20.278Z,12.22
2022-10-03T00:38:04.024Z,12.18
2022-10-03T00:39:43.633Z,12.16
2022-10-03T00:41:31.043Z,12.12
2022-10-03T00:43:14.129Z,12.06
2022-10-03T00:44:52.534Z,12.04
2022-10-03T00:46:30.237Z,12.00
2022-10-03T00:48:25.260Z,12.00
2022-10-03T00:50:09.192Z,11.95
2022-10-03T00:52:02.627Z,11.87
2022-10-03T00:53:38.067Z,11.81
2022-10-03T00:55:18.793Z,11.77
2022-10-03T00:56:58.458Z,11.73
2022-10-03T00:58:34.429Z,11.70
2022-10-03T01:00:16.860Z,11.68
2022-10-03T01:01:54.845Z,11.64
2022-10-03T01:03:35.791Z,11.61
2022-10-03T01:12:55.926Z,11.78
2022-10-03T01:14:46.456Z,11.88
2022-10-03T01:16:38.075Z,11.99
2022-10-03T01:18:13.828Z,12.12
2022-10-03T01:20:08.073Z,12.21
2022-10-03T01:21:46.740Z,12.31
2022-10-03T01:23:27.104Z,12.41
2022-10-03T01:25:04.743Z,12.52
2022-10-03T01:27:05.213Z,12.60
2022-10-03T01:29:12.630Z,12.69
2022-10-03T01:30:50.026Z,12.75
2022-10-03T01:32:34.651Z,12.77
2022-10-03T01:34:14.234Z,12.70
2022-10-03T01:35:53.907Z,12.64
2022-10-03T01:37:43.684Z,12.59
2022-10-03T01:39:45.086Z,12.55
2022-10-03T01:41:36.064Z,12.57
2022-10-03T01:43:13.340Z,12.63
2022-10-03T01:45:01.375Z,12.67
2022-10-03T01:46:54.059Z,12.72
2022-10-03T01:48:34.895Z,12.73
2022-10-03T01:50:28.921Z,12.70
2022-10-03T01:52:00.754Z,12.67
2022-10-03T01:53:43.564Z,12.66
2022-10-03T01:55:36.841Z,12.70
2022-10-03T01:57:23.091Z,12.67
2022-10-03T02:01:22.084Z,12.66
2022-10-03T02:02:56.626Z,12.66
2022-10-03T02:04:34.503Z,12.67
2022-10-03T02:06:06.972Z,12.68
2022-10-03T02:07:44.487Z,12.67
2022-10-03T02:09:27.947Z,12.66
2022-10-03T02:11:09.025Z,12.65
2022-10-03T02:12:41.472Z,12.64
2022-10-03T02:14:13.031Z,12.66
2022-10-03T02:15:44.783Z,12.65
2022-10-03T02:17:30.789Z,12.65
2022-10-03T02:19:14.912Z,12.65
2022-10-03T02:20:46.844Z,12.67
2022-10-03T02:22:36.663Z,12.65
2022-10-03T02:24:20.341Z,12.63
2022-10-03T02:25:54.636Z,12.63
2022-10-03T02:27:34.451Z,12.62
2022-10-03T02:29:21.121Z,12.60
2022-10-03T02:31:12.074Z,12.60
2022-10-03T02:33:19.136Z,12.61
2022-10-03T02:35:02.799Z,12.61
2022-10-03T02:36:43.310Z,12.60
2022-10-03T02:38:20.701Z,12.59
2022-10-03T02:40:01.293Z,12.60
2022-10-03T02:41:36.122Z,12.63
2022-10-03T02:43:26.160Z,12.64
2022-10-03T02:45:03.868Z,12.65
2022-10-03T02:46:49.077Z,12.64
2022-10-03T02:48:39.068Z,12.63
2022-10-03T02:50:29.319Z,12.61
2022-10-03T02:52:19.142Z,12.60
2022-10-03T02:53:56.728Z,12.61
2022-10-03T02:55:31.436Z,12.63
2022-10-03T02:57:03.209Z,12.68
2022-10-03T02:58:46.743Z,12.70
2022-10-03T03:00:18.493Z,12.76
2022-10-03T03:01:53.124Z,12.77
2022-10-03T03:03:36.949Z,12.79
2022-10-03T03:05:28.928Z,12.82
2022-10-03T03:07:20.017Z,12.84
2022-10-03T03:08:58.407Z,12.86
2022-10-03T03:10:48.812Z,12.90
2022-10-03T03:12:20.471Z,12.89
2022-10-03T03:14:10.716Z,12.85
2022-10-03T03:15:42.924Z,12.81
2022-10-03T03:17:15.237Z,12.78
2022-10-03T03:18:49.696Z,12.78
2022-10-03T03:20:33.577Z,12.75
2022-10-03T03:22:43.745Z,12.68
2022-10-03T03:24:18.252Z,12.57
2022-10-03T03:25:57.472Z,12.50
2022-10-03T03:27:35.238Z,12.44
2022-10-03T03:29:22.102Z,12.37
2022-10-03T03:31:00.468Z,12.29
2022-10-03T03:32:34.608Z,12.23
2022-10-03T03:34:20.296Z,12.18
2022-10-03T03:35:51.984Z,12.18
2022-10-03T03:37:32.845Z,12.18
2022-10-03T03:39:25.644Z,12.21
2022-10-03T03:40:57.212Z,12.18
2022-10-03T03:42:51.652Z,12.17
2022-10-03T03:44:41.423Z,12.11
2022-10-03T03:46:31.148Z,12.07
2022-10-03T03:48:22.793Z,12.08
2022-10-03T03:50:00.739Z,12.03
2022-10-03T03:51:33.706Z,11.99
2022-10-03T03:53:14.448Z,11.96
2022-10-03T03:54:52.019Z,11.90
2022-10-03T03:56:30.087Z,11.86
2022-10-03T03:58:17.890Z,11.82
2022-10-03T03:59:50.240Z,11.76
2022-10-03T04:01:58.158Z,11.71
2022-10-03T04:03:44.131Z,11.65
2022-10-03T04:05:24.317Z,11.60
2022-10-03T04:07:21.637Z,11.58
2022-10-03T04:09:03.028Z,11.56
2022-10-03T04:10:34.601Z,11.55
2022-10-03T04:12:09.323Z,11.54
2022-10-03T04:13:47.991Z,11.53
2022-10-03T04:15:30.910Z,11.56
2022-10-03T04:17:26.499Z,11.59
2022-10-03T04:19:04.548Z,11.61
2022-10-03T04:20:36.158Z,11.58
2022-10-03T04:22:09.625Z,11.58
2022-10-03T04:23:58.445Z,11.61
2022-10-03T04:25:46.845Z,11.62
2022-10-03T04:27:24.404Z,11.59
2022-10-03T04:29:06.229Z,11.59
2022-10-03T04:30:46.284Z,11.54
2022-10-03T04:32:20.664Z,11.55
2022-10-03T04:33:56.609Z,11.58
2022-10-03T04:35:40.511Z,11.58
2022-10-03T04:37:15.803Z,11.56
2022-10-03T04:38:55.113Z,11.55
2022-10-03T04:40:42.860Z,11.53
2022-10-03T04:42:26.913Z,11.53
2022-10-03T04:44:32.089Z,11.54
2022-10-03T04:46:16.265Z,11.56
2022-10-03T04:48:00.038Z,11.56
2022-10-03T04:49:36.007Z,11.57
2022-10-03T04:51:13.752Z,11.58
2022-10-03T04:52:59.267Z,11.60
2022-10-03T04:54:43.831Z,11.63
2022-10-03T04:56:22.314Z,11.62
2022-10-03T04:58:04.723Z,11.62
2022-10-03T04:59:39.341Z,11.62
2022-10-03T05:01:26.793Z,11.64
2022-10-03T05:02:58.919Z,11.69
2022-10-03T05:04:33.900Z,11.64
2022-10-03T05:06:28.774Z,11.52
2022-10-03T05:08:12.963Z,11.44
2022-10-03T05:09:50.482Z,11.46
2022-10-03T05:11:23.286Z,11.49
2022-10-03T05:12:57.755Z,11.55
2022-10-03T05:14:35.659Z,11.55
2022-10-03T05:16:10.627Z,11.60
2022-10-03T05:17:47.420Z,11.62
2022-10-03T05:19:23.486Z,11.67
2022-10-03T05:21:07.396Z,11.70
2022-10-03T05:22:39.263Z,11.70
2022-10-03T05:24:16.445Z,11.70
2022-10-03T05:25:48.075Z,11.69
2022-10-03T05:27:23.195Z,11.72
2022-10-03T05:29:06.380Z,11.69
2022-10-03T05:30:56.663Z,11.69
2022-10-03T05:32:42.423Z,11.69
2022-10-03T05:34:29.134Z,11.68
2022-10-03T05:36:10.877Z,11.68
2022-10-03T05:37:50.235Z,11.71
2022-10-03T05:39:40.388Z,11.75
2022-10-03T05:41:12.605Z,11.79
2022-10-03T05:42:47.311Z,11.80
2022-10-03T05:44:19.580Z,11.82
2022-10-03T05:45:54.578Z,11.85
2022-10-03T05:47:45.248Z,11.92
2022-10-03T05:49:16.964Z,11.95
2022-10-03T05:51:09.474Z,11.99
2022-10-03T05:52:41.617Z,12.03
2022-10-03T05:54:28.851Z,12.02
2022-10-03T05:56:14.240Z,12.00
2022-10-03T05:58:05.459Z,12.04
2022-10-03T05:59:37.783Z,12.04
2022-10-03T06:01:21.701Z,12.07
2022-10-03T06:02:57.183Z,12.11
2022-10-03T06:04:28.999Z,12.14
2022-10-03T06:06:20.223Z,12.19
2022-10-03T06:07:51.777Z,12.27
2022-10-03T06:09:23.575Z,12.32
2022-10-03T06:11:04.359Z,12.32
2022-10-03T06:12:41.237Z,12.34
2022-10-03T06:14:27.751Z,12.43
2022-10-03T06:16:18.822Z,12.43
2022-10-03T06:17:58.272Z,12.39
2022-10-03T06:19:48.874Z,12.36
2022-10-03T06:21:23.596Z,12.35
2022-10-03T06:23:05.793Z,12.32
2022-10-03T06:24:38.932Z,12.27
2022-10-03T06:26:15.089Z,12.30
2022-10-03T06:28:05.743Z,12.33
2022-10-03T06:29:46.757Z,12.35
2022-10-03T06:31:31.916Z,12.36
2022-10-03T06:33:04.216Z,12.43
2022-10-03T06:34:51.025Z,12.50
2022-10-03T06:36:22.910Z,12.54
2022-10-03T06:38:14.656Z,12.59
2022-10-03T06:40:09.583Z,12.60
2022-10-03T06:41:48.542Z,12.60
2022-10-03T06:43:25.728Z,12.62
2022-10-03T06:45:16.205Z,12.66
2022-10-03T06:46:52.893Z,12.66
2022-10-03T06:48:43.329Z,12.65
2022-10-03T06:50:19.631Z,12.62
2022-10-03T06:51:53.845Z,12.54
2022-10-03T06:53:34.367Z,12.52
2022-10-03T06:55:12.254Z,12.52
2022-10-03T06:56:53.179Z,12.51
2022-10-03T06:58:27.595Z,12.51
2022-10-03T07:00:15.592Z,12.55
2022-10-03T07:01:48.905Z,12.65
2022-10-03T07:03:25.470Z,12.69
2022-10-03T07:05:09.386Z,12.74
2022-10-03T07:06:44.290Z,12.86
2022-10-03T07:08:24.859Z,12.97
2022-10-03T07:10:02.579Z,13.11
2022-10-03T07:11:46.986Z,13.17
2022-10-03T07:13:38.040Z,13.22
2022-10-03T07:15:50.813Z,13.27
2022-10-03T07:17:26.148Z,13.26
2022-10-03T07:19:02.101Z,13.32
2022-10-03T07:20:55.454Z,13.34
2022-10-03T07:22:35.990Z,13.43
2022-10-03T07:24:26.236Z,13.49
2022-10-03T07:26:16.873Z,13.59
2022-10-03T07:27:51.352Z,13.66
2022-10-03T07:29:30.819Z,13.62
2022-10-03T07:31:21.332Z,13.59
2022-10-03T07:32:59.180Z,13.65
2022-10-03T07:34:33.812Z,13.75
2022-10-03T07:36:24.042Z,13.81
2022-10-03T07:38:13.991Z,13.84
2022-10-03T07:40:02.231Z,13.89
2022-10-03T07:41:34.224Z,13.95
2022-10-03T07:43:16.051Z,13.98
2022-10-03T07:44:50.911Z,14.01
2022-10-03T07:46:42.191Z,14.05
2022-10-03T07:48:25.381Z,14.06
2022-10-03T07:49:59.692Z,14.08
2022-10-03T07:51:50.760Z,14.10
2022-10-03T07:53:22.332Z,14.07
2022-10-03T07:54:54.119Z,14.01
2022-10-03T07:56:32.707Z,14.00
2022-10-03T07:58:26.451Z,14.02
2022-10-03T08:00:05.767Z,14.05
2022-10-03T08:01:41.874Z,14.09
2022-10-03T08:03:32.543Z,14.10
2022-10-03T08:05:22.970Z,13.97
2022-10-03T08:07:18.524Z,13.81
2022-10-03T08:08:59.161Z,13.72
2022-10-03T08:10:49.668Z,13.72
2022-10-03T08:12:52.085Z,13.69
2022-10-03T08:14:32.678Z,13.72
2022-10-03T08:16:19.194Z,13.74
2022-10-03T08:18:09.747Z,13.75
2022-10-03T08:19:41.520Z,13.74
2022-10-03T08:21:35.944Z,13.72
2022-10-03T08:23:26.137Z,13.78
2022-10-03T08:25:02.971Z,13.84
2022-10-03T08:26:50.087Z,13.85
2022-10-03T08:28:43.547Z,13.86
2022-10-03T08:30:25.677Z,13.85
2022-10-03T08:32:06.413Z,13.85
2022-10-03T08:33:42.167Z,13.86
2022-10-03T08:35:16.738Z,13.82
2022-10-03T08:36:51.154Z,13.75
2022-10-03T08:38:38.105Z,13.69
2022-10-03T08:40:11.291Z,13.70
2022-10-03T08:41:58.197Z,13.70
2022-10-03T08:43:30.134Z,13.72
2022-10-03T08:45:27.816Z,13.75
2022-10-03T08:47:02.688Z,13.80
2022-10-03T08:48:41.213Z,13.87
2022-10-03T08:50:31.686Z,13.92
2022-10-03T08:52:18.440Z,13.95
2022-10-03T08:53:55.994Z,13.96
2022-10-03T08:55:46.241Z,14.04
2022-10-03T08:57:23.952Z,14.02
2022-10-03T08:58:58.514Z,14.12
2022-10-03T09:00:52.903Z,14.19
2022-10-03T09:02:24.641Z,14.21
2022-10-03T09:03:56.394Z,14.22
2022-10-03T09:05:46.462Z,14.29
2022-10-03T09:07:27.701Z,14.38
2022-10-03T09:09:18.363Z,14.50
2022-10-03T09:10:55.812Z,14.63
2022-10-03T09:12:33.353Z,14.76
2022-10-03T09:14:11.818Z,14.90
2022-10-03T09:15:53.675Z,15.03
2022-10-03T09:17:43.640Z,15.19
2022-10-03T09:19:24.510Z,15.35
2022-10-03T09:21:15.828Z,15.46
2022-10-03T09:22:50.317Z,15.55
2022-10-03T09:24:41.741Z,15.64
2022-10-03T09:26:18.452Z,15.72
2022-10-03T09:28:08.998Z,15.76
2022-10-03T09:29:52.595Z,15.78
2022-10-03T09:31:39.200Z,15.79
2022-10-03T09:33:26.974Z,15.79
2022-10-03T09:35:17.967Z,15.81
2022-10-03T09:37:05.161Z,15.81
2022-10-03T09:38:49.000Z,15.84
2022-10-03T09:40:21.123Z,15.89
2022-10-03T09:42:01.915Z,15.93
2022-10-03T09:43:36.677Z,15.97
2022-10-03T09:45:24.448Z,16.01
2022-10-03T09:47:23.951Z,16.06
2022-10-03T09:49:02.283Z,16.12
2022-10-03T09:50:35.403Z,16.16
2022-10-03T09:52:13.063Z,16.17
2022-10-03T09:53:53.589Z,16.19
2022-10-03T09:55:34.372Z,16.24
2022-10-03T09:57:06.107Z,16.30
2022-10-03T09:58:56.710Z,16.37
2022-10-03T10:00:55.467Z,16.48
2022-10-03T10:02:27.564Z,16.57
2022-10-03T10:04:28.322Z,16.63
2022-10-03T10:06:12.158Z,16.63
2022-10-03T10:08:02.860Z,16.67
2022-10-03T10:09:53.512Z,16.78
2022-10-03T10:11:31.724Z,16.85
2022-10-03T10:13:12.602Z,16.89
2022-10-03T10:14:53.760Z,16.97
2022-10-03T10:16:31.525Z,17.02
2022-10-03T10:18:22.302Z,17.12
2022-10-03T10:19:56.400Z,17.12
2022-10-03T10:21:28.280Z,17.15
2022-10-03T10:23:10.829Z,17.18
2022-10-03T10:24:47.374Z,17.22
2022-10-03T10:26:31.064Z,17.27
2022-10-03T10:28:06.386Z,17.33
2022-10-03T10:29:48.463Z,17.37
2022-10-03T10:31:32.772Z,17.40
2022-10-03T10:33:19.680Z,17.47
2022-10-03T10:35:10.468Z,17.53
2022-10-03T10:36:42.520Z,17.58
2022-10-03T10:38:20.142Z,17.63
2022-10-03T10:39:53.195Z,17.69
2022-10-03T10:41:43.800Z,17.67
2022-10-03T10:43:24.827Z,17.58
2022-10-03T10:44:59.395Z,17.60
2022-10-03T10:46:33.979Z,17.67
2022-10-03T10:48:09.477Z,17.70
2022-10-03T10:49:50.427Z,17.70
2022-10-03T10:51:45.392Z,17.73
2022-10-03T10:53:38.298Z,17.83
2022-10-03T10:55:13.677Z,17.86
2022-10-03T10:56:48.237Z,17.84
2022-10-03T10:58:48.839Z,17.89
2022-10-03T11:00:34.573Z,17.93
2022-10-03T11:02:25.080Z,17.95
2022-10-03T11:04:16.092Z,17.95
2022-10-03T11:06:06.991Z,17.92
2022-10-03T11:07:54.150Z,17.90
2022-10-03T11:09:36.168Z,17.88
2022-10-03T11:11:10.896Z,17.91
2022-10-03T11:12:59.334Z,17.97
2022-10-03T11:14:37.484Z,17.97
2022-10-03T11:16:27.650Z,17.98
2022-10-03T11:18:05.154Z,18.01
2022-10-03T11:19:46.240Z,18.04
2022-10-03T11:21:24.928Z,18.04
2022-10-03T11:23:15.458Z,18.04
2022-10-03T11:25:13.107Z,18.07
2022-10-03T11:26:55.662Z,18.13
2022-10-03T11:28:45.991Z,18.14
2022-10-03T11:30:20.818Z,18.13
2022-10-03T11:32:13.363Z,18.10
2022-10-03T11:34:04.983Z,18.06
2022-10-03T11:35:57.602Z,18.04
2022-10-03T11:37:40.949Z,18.02
2022-10-03T11:39:17.730Z,18.04
2022-10-03T11:41:00.022Z,18.09
2022-10-03T11:42:33.975Z,18.09
2022-10-03T11:44:10.767Z,18.06
2022-10-03T11:45:47.875Z,18.03
2022-10-03T11:47:36.228Z,17.99
2022-10-03T11:49:11.906Z,17.84
2022-10-03T11:50:47.118Z,17.65
2022-10-03T11:52:39.523Z,17.50
2022-10-03T11:54:31.864Z,17.41
2022-10-03T11:56:11.102Z,17.23
2022-10-03T11:57:44.737Z,17.23
2022-10-03T11:59:32.625Z,17.26
2022-10-03T12:01:08.737Z,17.23
2022-10-03T12:02:48.663Z,17.24
2022-10-03T12:04:29.400Z,17.24
2022-10-03T12:06:24.517Z,17.26
2022-10-03T12:08:19.880Z,17.30
2022-10-03T12:10:04.572Z,17.35
2022-10-03T12:11:38.816Z,17.38
2022-10-03T12:13:18.213Z,17.35
2022-10-03T12:14:50.508Z,17.35
2022-10-03T12:16:29.411Z,17.36
2022-10-03T12:18:35.631Z,17.35
2022-10-03T12:20:18.481Z,17.32
2022-10-03T12:22:12.022Z,17.34
2022-10-03T12:23:44.907Z,17.26
2022-10-03T12:25:18.978Z,17.23
2022-10-03T12:27:03.960Z,17.23
2022-10-03T12:28:46.033Z,17.24
2022-10-03T12:30:18.869Z,17.35
2022-10-03T12:32:00.686Z,17.46
2022-10-03T12:33:46.479Z,17.52
2022-10-03T12:35:30.698Z,17.49
2022-10-03T12:37:12.553Z,17.41
2022-10-03T12:38:51.285Z,17.31
2022-10-03T12:40:24.878Z,17.28
2022-10-03T12:41:57.434Z,17.33
2022-10-03T12:43:48.795Z,17.27
2022-10-03T12:45:41.450Z,17.31
2022-10-03T12:47:54.209Z,17.48
2022-10-03T12:49:24.922Z,17.70
2022-10-03T12:51:05.664Z,17.83
2022-10-03T12:52:45.695Z,17.96
2022-10-03T12:54:36.160Z,18.12
2022-10-03T12:56:21.080Z,18.25
2022-10-03T12:57:54.891Z,18.38
2022-10-03T12:59:43.579Z,18.55
2022-10-03T13:01:21.279Z,18.80
2022-10-03T13:02:59.650Z,19.02
2022-10-03T13:04:35.478Z,19.27
2022-10-03T13:06:12.253Z,19.47
2022-10-03T13:07:45.331Z,19.56
2022-10-03T13:09:21.248Z,19.66
2022-10-03T13:10:57.445Z,19.78
2022-10-03T13:12:52.581Z,19.84
2022-10-03T13:14:43.958Z,19.88
2022-10-03T13:16:24.676Z,19.84
2022-10-03T13:18:13.219Z,19.83
2022-10-03T13:19:52.171Z,19.86
2022-10-03T13:21:46.888Z,19.93
2022-10-03T13:23:23.849Z,20.03
2022-10-03T13:24:59.123Z,19.99
2022-10-03T13:26:50.718Z,20.02
2022-10-03T13:28:47.019Z,20.11
2022-10-03T13:30:22.348Z,20.09
2022-10-03T13:32:12.957Z,20.07
2022-10-03T13:33:49.823Z,19.97
2022-10-03T13:35:41.016Z,19.97
2022-10-03T13:37:15.570Z,20.02
2022-10-03T13:38:52.528Z,20.03
2022-10-03T13:40:24.635Z,20.01
2022-10-03T13:42:00.438Z,20.07
2022-10-03T13:43:36.047Z,20.09
2022-10-03T13:45:27.586Z,20.14
2022-10-03T13:47:03.512Z,20.22
2022-10-03T13:48:35.239Z,20.19
2022-10-03T13:50:11.022Z,20.18
2022-10-03T13:51:46.194Z,20.18
2022-10-03T13:53:20.767Z,20.18
2022-10-03T13:55:01.723Z,20.20
2022-10-03T13:56:36.671Z,20.16
2022-10-03T13:58:18.430Z,20.03
2022-10-03T13:59:59.843Z,20.02
2022-10-03T14:01:37.754Z,20.01
2022-10-03T14:03:13.953Z,19.96
2022-10-03T14:04:54.733Z,19.93
2022-10-03T14:06:32.880Z,19.96
2022-10-03T14:08:27.125Z,20.00
2022-10-03T14:10:01.925Z,20.04
2022-10-03T14:11:50.267Z,20.04
2022-10-03T14:13:40.332Z,19.94
2022-10-03T14:15:16.154Z,19.82
2022-10-03T14:16:50.265Z,19.73
2022-10-03T14:18:40.194Z,19.65
2022-10-03T14:20:19.541Z,19.61
2022-10-03T14:21:58.025Z,19.59
2022-10-03T14:23:35.073Z,19.48
2022-10-03T14:25:09.554Z,19.41
2022-10-03T14:26:49.988Z,19.31
2022-10-03T14:28:27.476Z,19.27
2022-10-03T14:30:18.500Z,19.23
2022-10-03T14:31:58.696Z,19.22
2022-10-03T14:33:42.316Z,19.23
2022-10-03T14:35:27.832Z,19.28
2022-10-03T14:37:03.252Z,19.29
2022-10-03T14:39:02.027Z,19.25
2022-10-03T14:41:08.915Z,19.17
2022-10-03T14:42:43.924Z,19.10
2022-10-03T14:44:19.750Z,18.98
2022-10-03T14:45:52.691Z,18.84
2022-10-03T14:47:24.870Z,18.76
2022-10-03T14:48:58.970Z,18.69
2022-10-03T14:50:31.357Z,18.62
2022-10-03T14:52:13.067Z,18.60
2022-10-03T14:53:48.345Z,18.49
2022-10-03T14:55:30.113Z,18.41
2022-10-03T14:57:13.517Z,18.35
2022-10-03T14:58:47.879Z,18.27
2022-10-03T15:00:39.053Z,18.17
2022-10-03T15:02:27.560Z,18.08
2022-10-03T15:04:02.770Z,17.97
2022-10-03T15:05:35.228Z,17.87
2022-10-03T15:07:08.679Z,17.82
2022-10-03T15:08:43.024Z,17.84
2022-10-03T15:10:15.752Z,17.78
2022-10-03T15:12:13.546Z,17.73
2022-10-03T15:13:50.978Z,17.69
2022-10-03T15:15:27.298Z,17.63
2022-10-03T15:16:59.656Z,17.57
2022-10-03T15:18:31.619Z,17.52
2022-10-03T15:20:03.641Z,17.48
2022-10-03T15:21:35.725Z,17.45
2022-10-03T15:23:08.622Z,17.38
2022-10-03T15:24:40.632Z,17.33
2022-10-03T15:26:14.046Z,17.30
2022-10-03T15:27:47.059Z,17.24
2022-10-03T15:29:18.754Z,17.20
2022-10-03T15:30:51.829Z,17.17
2022-10-03T15:32:43.816Z,17.12
2022-10-03T15:34:22.206Z,17.08
2022-10-03T15:35:55.496Z,17.04
2022-10-03T15:37:29.599Z,17.01
2022-10-03T15:39:02.448Z,16.97
2022-10-03T15:40:35.029Z,16.95
2022-10-03T15:42:09.894Z,16.90
2022-10-03T15:44:05.154Z,16.84
2022-10-03T15:45:36.850Z,16.73
2022-10-03T15:47:09.669Z,16.62
2022-10-03T15:48:44.201Z,16.53
2022-10-03T15:50:22.289Z,16.48
2022-10-03T15:51:54.777Z,16.44
2022-10-03T15:53:42.423Z,16.41
2022-10-03T15:55:24.437Z,16.40
2022-10-03T15:56:57.240Z,16.34
2022-10-03T15:58:28.913Z,16.30
2022-10-03T16:00:03.359Z,16.24
2022-10-03T16:01:38.080Z,16.19
2022-10-03T16:03:12.402Z,16.15
2022-10-03T16:04:44.499Z,16.09
2022-10-03T16:06:40.148Z,16.04
2022-10-03T16:08:14.542Z,16.00
2022-10-03T16:09:46.567Z,15.96
2022-10-03T16:11:22.650Z,15.94
2022-10-03T16:12:57.134Z,15.91
2022-10-03T16:14:30.320Z,15.90
2022-10-03T16:16:13.148Z,15.84
2022-10-03T16:17:52.758Z,15.77
2022-10-03T16:19:31.910Z,15.76
2022-10-03T16:21:03.968Z,15.74
2022-10-03T16:22:43.960Z,15.72
2022-10-03T16:24:22.739Z,15.63
2022-10-03T16:25:59.146Z,15.56
2022-10-03T16:27:32.202Z,15.45
2022-10-03T16:29:36.361Z,15.38
2022-10-03T16:31:14.465Z,15.31
2022-10-03T16:32:51.037Z,15.25
2022-10-03T16:34:23.051Z,15.16
2022-10-03T16:35:55.102Z,15.10
2022-10-03T16:37:27.407Z,14.99
2022-10-03T16:39:00.277Z,14.89
2022-10-03T16:40:31.843Z,14.82
2022-10-03T16:42:13.600Z,14.77
2022-10-03T16:43:55.042Z,14.74
2022-10-03T16:45:41.062Z,14.76
2022-10-03T16:47:12.713Z,14.71
2022-10-03T16:49:02.880Z,14.68
2022-10-03T16:50:38.775Z,14.67
2022-10-03T16:52:11.228Z,14.67
2022-10-03T16:53:43.231Z,14.67
2022-10-03T16:55:14.998Z,14.68
2022-10-03T16:56:48.490Z,14.70
2022-10-03T16:58:26.246Z,14.70
2022-10-03T16:59:57.838Z,14.71
2022-10-03T17:01:29.543Z,14.68
2022-10-03T17:03:06.826Z,14.67
2022-10-03T17:04:42.394Z,14.63
2022-10-03T17:06:16.364Z,14.59
2022-10-03T17:07:48.887Z,14.58
2022-10-03T17:09:39.362Z,14.57
2022-10-03T17:11:13.390Z,14.46
2022-10-03T17:12:46.425Z,14.40
2022-10-03T17:14:18.186Z,14.36
2022-10-03T17:16:12.868Z,14.37
2022-10-03T17:18:00.290Z,14.37
2022-10-03T17:19:40.200Z,14.37
2022-10-03T17:21:20.953Z,14.31
2022-10-03T17:22:53.497Z,14.27
2022-10-03T17:24:33.342Z,14.25
2022-10-03T17:26:11.241Z,14.27
2022-10-03T17:27:43.502Z,14.28
2022-10-03T17:29:15.338Z,14.29
2022-10-03T17:30:46.928Z,14.30
2022-10-03T17:32:23.567Z,14.30
2022-10-03T17:33:58.446Z,14.32
2022-10-03T17:35:31.778Z,14.34
2022-10-03T17:37:12.577Z,14.35
2022-10-03T17:38:50.530Z,14.33
2022-10-03T17:40:23.443Z,14.36
2022-10-03T17:42:13.642Z,14.39
2022-10-03T17:43:46.656Z,14.38
2022-10-03T17:45:33.845Z,14.38
2022-10-03T17:47:05.504Z,14.39
2022-10-03T17:48:41.519Z,14.40
2022-10-03T17:50:15.864Z,14.41
2022-10-03T17:51:49.213Z,14.43
2022-10-03T17:53:21.865Z,14.44
2022-10-03T17:55:03.404Z,14.41
2022-10-03T17:56:34.976Z,14.39
2022-10-03T17:58:08.140Z,14.35
2022-10-03T17:59:47.989Z,14.31
2022-10-03T18:01:20.723Z,14.28
2022-10-03T18:02:55.248Z,14.26
2022-10-03T18:04:36.982Z,14.22
2022-10-03T18:06:20.952Z,14.17
2022-10-03T18:07:54.948Z,14.14
2022-10-03T18:09:30.718Z,14.09
2022-10-03T18:11:03.329Z,14.06
2022-10-03T18:12:42.587Z,14.02
2022-10-03T18:14:15.195Z,14.01
2022-10-03T18:15:47.222Z,13.95
2022-10-03T18:17:20.779Z,13.92
2022-10-03T18:19:28.443Z,13.88
2022-10-03T18:21:05.774Z,13.84
2022-10-03T18:22:40.875Z,13.78
2022-10-03T18:24:13.068Z,13.75
2022-10-03T18:26:20.456Z,13.75
2022-10-03T18:28:08.581Z,13.69
2022-10-03T18:30:13.196Z,13.67
2022-10-03T18:31:46.304Z,13.68
2022-10-03T18:33:20.557Z,13.69
2022-10-03T18:35:13.132Z,13.65
2022-10-03T18:36:47.919Z,13.62
2022-10-03T18:38:24.633Z,13.64
2022-10-03T18:39:57.674Z,13.62
2022-10-03T18:41:30.692Z,13.59
2022-10-03T18:43:02.621Z,13.56
2022-10-03T18:44:35.373Z,13.52
2022-10-03T18:46:15.243Z,13.55
2022-10-03T18:48:00.004Z,13.55
2022-10-03T18:49:34.285Z,13.54
2022-10-03T18:51:11.187Z,13.53
2022-10-03T18:53:01.339Z,13.51
2022-10-03T18:54:42.404Z,13.53
2022-10-03T18:56:18.996Z,13.54
2022-10-03T18:57:55.420Z,13.55
2022-10-03T18:59:48.461Z,13.54
2022-10-03T19:01:26.315Z,13.56
2022-10-03T19:03:01.084Z,13.56
2022-10-03T19:04:35.290Z,13.58
2022-10-03T19:06:08.715Z,13.59
2022-10-03T19:07:44.553Z,13.61
2022-10-03T19:09:25.195Z,13.61
2022-10-03T19:11:00.991Z,13.58
2022-10-03T19:12:35.260Z,13.57
2022-10-03T19:14:06.857Z,13.56
2022-10-03T19:15:39.022Z,13.56
2022-10-03T19:17:21.420Z,13.57
2022-10-03T19:18:52.931Z,13.59
2022-10-03T19:20:28.059Z,13.59
2022-10-03T19:22:06.268Z,13.65
2022-10-03T19:23:41.464Z,13.70
2022-10-03T19:25:18.909Z,13.73
2022-10-03T19:26:54.555Z,13.71
2022-10-03T19:28:29.028Z,13.62
2022-10-03T19:30:00.790Z,13.56
2022-10-03T19:31:33.044Z,13.53
2022-10-03T19:33:10.004Z,13.51
2022-10-03T19:34:43.485Z,13.47
2022-10-03T19:36:26.355Z,13.46
2022-10-03T19:38:04.150Z,13.42
2022-10-03T19:39:37.779Z,13.41
2022-10-03T19:41:09.604Z,13.39
2022-10-03T19:42:46.092Z,13.39
2022-10-03T19:44:20.205Z,13.38
2022-10-03T19:45:59.698Z,13.37
2022-10-03T19:47:32.394Z,13.33
2022-10-03T19:49:10.695Z,13.30
2022-10-03T19:50:43.637Z,13.25
2022-10-03T19:52:17.638Z,13.22
2022-10-03T19:53:49.924Z,13.19
2022-10-03T19:55:31.109Z,13.20
2022-10-03T19:57:03.152Z,13.21
2022-10-03T19:58:35.909Z,13.20
2022-10-03T20:00:24.493Z,13.18
2022-10-03T20:01:56.700Z,13.17
2022-10-03T20:03:29.399Z,13.14
2022-10-03T20:05:01.565Z,13.10
2022-10-03T20:06:37.295Z,13.08
2022-10-03T20:08:27.837Z,13.08
2022-10-03T20:10:02.083Z,13.07
2022-10-03T20:11:48.840Z,13.06
2022-10-03T20:13:21.913Z,13.02
2022-10-03T20:14:54.797Z,13.00
2022-10-03T20:16:26.853Z,12.99
2022-10-03T20:17:59.935Z,12.98
2022-10-03T20:19:54.986Z,12.98
2022-10-03T20:21:27.160Z,12.96
2022-10-03T20:23:04.318Z,12.93
2022-10-03T20:24:46.373Z,12.93
2022-10-03T20:26:36.736Z,12.92
2022-10-03T20:28:12.276Z,12.89
2022-10-03T20:29:48.314Z,12.87
2022-10-03T20:31:25.053Z,12.87
2022-10-03T20:32:58.248Z,12.86
2022-10-03T20:34:31.673Z,12.88
2022-10-03T20:36:10.704Z,12.88
2022-10-03T20:37:50.515Z,12.89
2022-10-03T20:39:26.398Z,12.88
2022-10-03T20:41:01.466Z,12.88
2022-10-03T20:42:33.129Z,12.89
2022-10-03T20:44:11.089Z,12.86
2022-10-03T20:45:43.048Z,12.88
2022-10-03T20:47:32.986Z,12.88
2022-10-03T20:49:20.254Z,12.87
2022-10-03T20:50:53.023Z,12.85
2022-10-03T20:52:24.597Z,12.86
2022-10-03T20:53:56.207Z,12.88
2022-10-03T20:55:30.271Z,12.84
2022-10-03T20:57:20.966Z,12.86
2022-10-03T20:58:56.277Z,12.84
2022-10-03T21:00:27.888Z,12.84
2022-10-03T21:02:27.652Z,12.84
2022-10-03T21:04:21.072Z,12.82
2022-10-03T21:05:53.778Z,12.81
2022-10-03T21:07:30.356Z,12.81
2022-10-03T21:09:01.950Z,12.81
2022-10-03T21:10:35.944Z,12.80
2022-10-03T21:12:12.817Z,12.79
2022-10-03T21:13:57.812Z,12.76
2022-10-03T21:15:40.057Z,12.71
2022-10-03T21:22:05.400Z,12.66
2022-10-03T21:23:38.545Z,12.67
2022-10-03T21:25:18.266Z,12.67
2022-10-03T21:27:08.341Z,12.69
2022-10-03T21:28:39.911Z,12.71
2022-10-03T21:30:18.235Z,12.70
2022-10-03T21:31:52.668Z,12.70
2022-10-03T21:33:27.262Z,12.70
2022-10-03T21:35:01.499Z,12.68
2022-10-03T21:36:46.177Z,12.67
2022-10-03T21:38:26.921Z,12.69
2022-10-03T21:40:17.360Z,12.68
2022-10-03T21:41:56.949Z,12.68
2022-10-03T21:43:38.036Z,12.68
2022-10-03T21:45:09.655Z,12.71
2022-10-03T21:46:53.647Z,12.72
2022-10-03T21:48:48.636Z,12.75
2022-10-03T21:50:25.064Z,12.73
2022-10-03T21:52:06.642Z,12.74